sensor_id;sensor_type;location;lat;lon;timestamp;temperature;humidity
70154;DHT22;57519;51.494;-2.626;2022-08-19T00:01:26;18.79;92.99
70154;DHT22;57519;51.494;-2.626;2022-08-19T00:03:52;18.82;93.03
70154;DHT22;57519;51.494;-2.626;2022-08-19T00:06:17;18.79;93.24
70154;DHT22;57519;51.494;-2.626;2022-08-19T00:08:43;18.72;93.35
70154;DHT22;57519;51.494;-2.626;2022-08-19T00:11:10;18.77;93.51
70154;DHT22;57519;51.494;-2.626;2022-08-19T00:13:36;18.76;93.49
70154;DHT22;57519;51.494;-2.626;2022-08-19T00:16:05;18.77;93.42
70154;DHT22;57519;51.494;-2.626;2022-08-19T00:18:32;18.76;93.08
70154;DHT22;57519;51.494;-2.626;2022-08-19T00:20:58;18.72;93.11
70154;DHT22;57519;51.494;-2.626;2022-08-19T00:23:25;18.72;92.91
70154;DHT22;57519;51.494;-2.626;2022-08-19T00:25:50;18.65;92.67
70154;DHT22;57519;51.494;-2.626;2022-08-19T00:28:16;18.66;92.62
70154;DHT22;57519;51.494;-2.626;2022-08-19T00:30:41;18.62;92.48
70154;DHT22;57519;51.494;-2.626;2022-08-19T00:33:07;18.61;92.46
70154;DHT22;57519;51.494;-2.626;2022-08-19T00:35:33;18.62;92.51
70154;DHT22;57519;51.494;-2.626;2022-08-19T00:37:59;18.63;92.36
70154;DHT22;57519;51.494;-2.626;2022-08-19T00:40:25;18.66;92.57
70154;DHT22;57519;51.494;-2.626;2022-08-19T00:42:51;18.63;92.69
70154;DHT22;57519;51.494;-2.626;2022-08-19T00:45:21;18.65;92.51
70154;DHT22;57519;51.494;-2.626;2022-08-19T00:47:47;18.69;92.38
70154;DHT22;57519;51.494;-2.626;2022-08-19T00:50:15;18.62;91.94
70154;DHT22;57519;51.494;-2.626;2022-08-19T00:52:45;18.58;91.99
70154;DHT22;57519;51.494;-2.626;2022-08-19T00:55:25;18.52;91.87
70154;DHT22;57519;51.494;-2.626;2022-08-19T00:58:00;18.52;91.97
70154;DHT22;57519;51.494;-2.626;2022-08-19T01:00:29;18.45;91.70
70154;DHT22;57519;51.494;-2.626;2022-08-19T01:02:55;18.40;92.01
70154;DHT22;57519;51.494;-2.626;2022-08-19T01:05:26;18.38;92.14
70154;DHT22;57519;51.494;-2.626;2022-08-19T01:07:54;18.35;92.27
70154;DHT22;57519;51.494;-2.626;2022-08-19T01:10:25;18.30;92.24
70154;DHT22;57519;51.494;-2.626;2022-08-19T01:12:52;18.28;92.27
70154;DHT22;57519;51.494;-2.626;2022-08-19T01:15:32;18.25;92.08
70154;DHT22;57519;51.494;-2.626;2022-08-19T01:18:02;18.18;92.14
70154;DHT22;57519;51.494;-2.626;2022-08-19T01:20:29;18.17;92.13
70154;DHT22;57519;51.494;-2.626;2022-08-19T01:22:57;18.18;92.15
70154;DHT22;57519;51.494;-2.626;2022-08-19T01:25:32;18.17;91.86
70154;DHT22;57519;51.494;-2.626;2022-08-19T01:28:01;18.15;91.53
70154;DHT22;57519;51.494;-2.626;2022-08-19T01:30:31;18.13;91.47
70154;DHT22;57519;51.494;-2.626;2022-08-19T01:32:57;18.13;90.86
70154;DHT22;57519;51.494;-2.626;2022-08-19T01:35:25;18.08;90.80
70154;DHT22;57519;51.494;-2.626;2022-08-19T01:37:53;18.07;90.97
70154;DHT22;57519;51.494;-2.626;2022-08-19T01:40:21;18.04;90.76
70154;DHT22;57519;51.494;-2.626;2022-08-19T01:42:53;18.10;90.67
70154;DHT22;57519;51.494;-2.626;2022-08-19T01:45:21;18.07;90.86
70154;DHT22;57519;51.494;-2.626;2022-08-19T01:47:46;17.98;90.87
70154;DHT22;57519;51.494;-2.626;2022-08-19T01:50:12;18.00;90.09
70154;DHT22;57519;51.494;-2.626;2022-08-19T01:52:40;17.90;90.33
70154;DHT22;57519;51.494;-2.626;2022-08-19T01:55:09;17.86;90.70
70154;DHT22;57519;51.494;-2.626;2022-08-19T01:57:35;17.83;90.47
70154;DHT22;57519;51.494;-2.626;2022-08-19T02:00:05;17.75;90.51
70154;DHT22;57519;51.494;-2.626;2022-08-19T02:02:31;17.72;90.46
70154;DHT22;57519;51.494;-2.626;2022-08-19T02:04:59;17.66;90.15
70154;DHT22;57519;51.494;-2.626;2022-08-19T02:07:32;17.67;89.92
70154;DHT22;57519;51.494;-2.626;2022-08-19T02:09:58;17.65;90.00
70154;DHT22;57519;51.494;-2.626;2022-08-19T02:12:23;17.62;89.63
70154;DHT22;57519;51.494;-2.626;2022-08-19T02:14:49;17.57;89.41
70154;DHT22;57519;51.494;-2.626;2022-08-19T02:17:14;17.57;89.14
70154;DHT22;57519;51.494;-2.626;2022-08-19T02:19:40;17.62;88.85
70154;DHT22;57519;51.494;-2.626;2022-08-19T02:22:06;17.57;89.40
70154;DHT22;57519;51.494;-2.626;2022-08-19T02:24:33;17.57;89.29
70154;DHT22;57519;51.494;-2.626;2022-08-19T02:27:14;17.59;88.81
70154;DHT22;57519;51.494;-2.626;2022-08-19T02:29:40;17.66;88.83
70154;DHT22;57519;51.494;-2.626;2022-08-19T02:32:06;17.66;88.65
70154;DHT22;57519;51.494;-2.626;2022-08-19T02:34:32;17.61;88.86
70154;DHT22;57519;51.494;-2.626;2022-08-19T02:36:57;17.56;88.77
70154;DHT22;57519;51.494;-2.626;2022-08-19T02:39:22;17.56;89.01
70154;DHT22;57519;51.494;-2.626;2022-08-19T02:41:48;17.55;89.09
70154;DHT22;57519;51.494;-2.626;2022-08-19T02:44:14;17.50;89.30
70154;DHT22;57519;51.494;-2.626;2022-08-19T02:46:40;17.49;89.00
70154;DHT22;57519;51.494;-2.626;2022-08-19T02:49:07;17.53;88.89
70154;DHT22;57519;51.494;-2.626;2022-08-19T02:51:38;17.52;88.53
70154;DHT22;57519;51.494;-2.626;2022-08-19T02:54:07;17.46;88.66
70154;DHT22;57519;51.494;-2.626;2022-08-19T02:56:35;17.39;88.42
70154;DHT22;57519;51.494;-2.626;2022-08-19T02:59:00;17.38;87.57
70154;DHT22;57519;51.494;-2.626;2022-08-19T03:01:45;17.34;87.43
70154;DHT22;57519;51.494;-2.626;2022-08-19T03:04:16;17.28;87.07
70154;DHT22;57519;51.494;-2.626;2022-08-19T03:06:47;17.29;86.62
70154;DHT22;57519;51.494;-2.626;2022-08-19T03:09:13;17.21;87.33
70154;DHT22;57519;51.494;-2.626;2022-08-19T03:11:41;17.14;86.89
70154;DHT22;57519;51.494;-2.626;2022-08-19T03:14:08;17.07;86.21
70154;DHT22;57519;51.494;-2.626;2022-08-19T03:16:43;16.97;85.02
70154;DHT22;57519;51.494;-2.626;2022-08-19T03:19:09;16.94;85.91
70154;DHT22;57519;51.494;-2.626;2022-08-19T03:21:38;16.90;86.11
70154;DHT22;57519;51.494;-2.626;2022-08-19T03:24:07;16.90;86.29
70154;DHT22;57519;51.494;-2.626;2022-08-19T03:26:34;16.88;86.47
70154;DHT22;57519;51.494;-2.626;2022-08-19T03:29:04;16.85;86.41
70154;DHT22;57519;51.494;-2.626;2022-08-19T03:31:30;16.84;87.55
70154;DHT22;57519;51.494;-2.626;2022-08-19T03:33:58;16.76;87.71
70154;DHT22;57519;51.494;-2.626;2022-08-19T03:36:26;16.70;87.13
70154;DHT22;57519;51.494;-2.626;2022-08-19T03:39:00;16.66;87.70
70154;DHT22;57519;51.494;-2.626;2022-08-19T03:41:32;16.73;87.51
70154;DHT22;57519;51.494;-2.626;2022-08-19T03:43:58;16.70;87.39
70154;DHT22;57519;51.494;-2.626;2022-08-19T03:46:29;16.74;87.87
70154;DHT22;57519;51.494;-2.626;2022-08-19T03:48:58;16.79;87.87
70154;DHT22;57519;51.494;-2.626;2022-08-19T03:51:34;16.85;87.84
70154;DHT22;57519;51.494;-2.626;2022-08-19T03:54:03;16.85;86.97
70154;DHT22;57519;51.494;-2.626;2022-08-19T03:56:38;16.90;86.88
70154;DHT22;57519;51.494;-2.626;2022-08-19T03:59:10;16.90;87.06
70154;DHT22;57519;51.494;-2.626;2022-08-19T04:01:36;16.85;87.48
70154;DHT22;57519;51.494;-2.626;2022-08-19T04:04:02;16.83;86.71
70154;DHT22;57519;51.494;-2.626;2022-08-19T04:06:31;16.80;86.58
70154;DHT22;57519;51.494;-2.626;2022-08-19T04:09:02;16.80;87.19
70154;DHT22;57519;51.494;-2.626;2022-08-19T04:11:46;16.76;87.23
70154;DHT22;57519;51.494;-2.626;2022-08-19T04:14:14;16.69;87.19
70154;DHT22;57519;51.494;-2.626;2022-08-19T04:16:40;16.56;88.09
70154;DHT22;57519;51.494;-2.626;2022-08-19T04:19:07;16.50;87.54
70154;DHT22;57519;51.494;-2.626;2022-08-19T04:21:32;16.41;88.19
70154;DHT22;57519;51.494;-2.626;2022-08-19T04:23:59;16.33;88.09
70154;DHT22;57519;51.494;-2.626;2022-08-19T04:26:31;16.23;88.36
70154;DHT22;57519;51.494;-2.626;2022-08-19T04:29:01;16.12;88.92
70154;DHT22;57519;51.494;-2.626;2022-08-19T04:31:30;16.00;89.34
70154;DHT22;57519;51.494;-2.626;2022-08-19T04:34:03;15.84;89.64
70154;DHT22;57519;51.494;-2.626;2022-08-19T04:36:31;15.73;90.24
70154;DHT22;57519;51.494;-2.626;2022-08-19T04:39:01;15.66;90.48
70154;DHT22;57519;51.494;-2.626;2022-08-19T04:41:28;15.57;90.50
70154;DHT22;57519;51.494;-2.626;2022-08-19T04:44:13;15.60;90.69
70154;DHT22;57519;51.494;-2.626;2022-08-19T04:46:41;15.54;90.66
70154;DHT22;57519;51.494;-2.626;2022-08-19T04:49:07;15.50;90.86
70154;DHT22;57519;51.494;-2.626;2022-08-19T04:51:34;15.42;90.98
70154;DHT22;57519;51.494;-2.626;2022-08-19T04:54:01;15.29;91.01
70154;DHT22;57519;51.494;-2.626;2022-08-19T04:56:28;15.26;90.90
70154;DHT22;57519;51.494;-2.626;2022-08-19T04:58:55;15.19;91.54
70154;DHT22;57519;51.494;-2.626;2022-08-19T05:01:27;15.09;91.38
70154;DHT22;57519;51.494;-2.626;2022-08-19T05:03:57;15.06;91.63
70154;DHT22;57519;51.494;-2.626;2022-08-19T05:06:23;14.98;91.82
70154;DHT22;57519;51.494;-2.626;2022-08-19T05:08:51;14.89;91.85
70154;DHT22;57519;51.494;-2.626;2022-08-19T05:11:22;14.82;91.58
70154;DHT22;57519;51.494;-2.626;2022-08-19T05:14:00;14.75;91.63
70154;DHT22;57519;51.494;-2.626;2022-08-19T05:16:29;14.75;92.15
70154;DHT22;57519;51.494;-2.626;2022-08-19T05:18:55;14.72;92.42
70154;DHT22;57519;51.494;-2.626;2022-08-19T05:21:40;14.71;92.19
70154;DHT22;57519;51.494;-2.626;2022-08-19T05:24:25;14.71;92.32
70154;DHT22;57519;51.494;-2.626;2022-08-19T05:26:53;14.72;91.96
70154;DHT22;57519;51.494;-2.626;2022-08-19T05:29:26;14.68;91.76
70154;DHT22;57519;51.494;-2.626;2022-08-19T05:31:54;14.65;92.04
70154;DHT22;57519;51.494;-2.626;2022-08-19T05:34:26;14.63;91.89
70154;DHT22;57519;51.494;-2.626;2022-08-19T05:36:58;14.63;91.89
70154;DHT22;57519;51.494;-2.626;2022-08-19T05:39:27;14.63;91.71
70154;DHT22;57519;51.494;-2.626;2022-08-19T05:41:57;14.60;91.66
70154;DHT22;57519;51.494;-2.626;2022-08-19T05:44:25;14.57;91.76
70154;DHT22;57519;51.494;-2.626;2022-08-19T05:46:53;14.59;91.89
70154;DHT22;57519;51.494;-2.626;2022-08-19T05:49:22;14.59;91.88
70154;DHT22;57519;51.494;-2.626;2022-08-19T05:51:48;14.59;91.58
70154;DHT22;57519;51.494;-2.626;2022-08-19T05:54:16;14.63;91.83
70154;DHT22;57519;51.494;-2.626;2022-08-19T05:56:48;14.70;91.94
70154;DHT22;57519;51.494;-2.626;2022-08-19T05:59:16;14.71;91.69
70154;DHT22;57519;51.494;-2.626;2022-08-19T06:01:46;14.77;91.90
70154;DHT22;57519;51.494;-2.626;2022-08-19T06:04:13;14.77;91.86
70154;DHT22;57519;51.494;-2.626;2022-08-19T06:06:48;14.91;91.95
70154;DHT22;57519;51.494;-2.626;2022-08-19T06:09:14;15.02;91.44
70154;DHT22;57519;51.494;-2.626;2022-08-19T06:11:45;15.03;91.39
70154;DHT22;57519;51.494;-2.626;2022-08-19T06:14:14;15.22;90.03
70154;DHT22;57519;51.494;-2.626;2022-08-19T06:16:47;15.30;87.85
70154;DHT22;57519;51.494;-2.626;2022-08-19T06:19:17;15.40;88.11
70154;DHT22;57519;51.494;-2.626;2022-08-19T06:21:46;15.49;84.96
70154;DHT22;57519;51.494;-2.626;2022-08-19T06:24:15;15.60;84.45
70154;DHT22;57519;51.494;-2.626;2022-08-19T06:26:52;15.70;83.76
70154;DHT22;57519;51.494;-2.626;2022-08-19T06:29:21;15.75;85.49
70154;DHT22;57519;51.494;-2.626;2022-08-19T06:31:49;15.81;83.97
70154;DHT22;57519;51.494;-2.626;2022-08-19T06:34:17;15.85;82.73
70154;DHT22;57519;51.494;-2.626;2022-08-19T06:36:51;15.93;83.57
70154;DHT22;57519;51.494;-2.626;2022-08-19T06:39:25;15.97;82.54
70154;DHT22;57519;51.494;-2.626;2022-08-19T06:41:54;16.05;82.22
70154;DHT22;57519;51.494;-2.626;2022-08-19T06:44:23;16.08;81.19
70154;DHT22;57519;51.494;-2.626;2022-08-19T06:46:50;16.16;81.93
70154;DHT22;57519;51.494;-2.626;2022-08-19T06:49:18;16.18;81.82
70154;DHT22;57519;51.494;-2.626;2022-08-19T06:51:46;16.22;81.57
70154;DHT22;57519;51.494;-2.626;2022-08-19T06:54:16;16.18;80.97
70154;DHT22;57519;51.494;-2.626;2022-08-19T06:56:42;16.22;81.44
70154;DHT22;57519;51.494;-2.626;2022-08-19T06:59:13;16.28;81.47
70154;DHT22;57519;51.494;-2.626;2022-08-19T07:01:43;16.28;79.92
70154;DHT22;57519;51.494;-2.626;2022-08-19T07:04:11;16.33;79.28
70154;DHT22;57519;51.494;-2.626;2022-08-19T07:06:37;16.39;78.93
70154;DHT22;57519;51.494;-2.626;2022-08-19T07:09:04;16.41;77.39
70154;DHT22;57519;51.494;-2.626;2022-08-19T07:11:31;16.41;76.30
70154;DHT22;57519;51.494;-2.626;2022-08-19T07:14:01;16.39;75.30
70154;DHT22;57519;51.494;-2.626;2022-08-19T07:16:28;16.36;74.71
70154;DHT22;57519;51.494;-2.626;2022-08-19T07:18:54;16.38;74.82
70154;DHT22;57519;51.494;-2.626;2022-08-19T07:21:25;16.39;75.06
70154;DHT22;57519;51.494;-2.626;2022-08-19T07:23:56;16.42;73.59
70154;DHT22;57519;51.494;-2.626;2022-08-19T07:26:25;16.43;74.23
70154;DHT22;57519;51.494;-2.626;2022-08-19T07:28:51;16.48;73.69
70154;DHT22;57519;51.494;-2.626;2022-08-19T07:31:23;16.46;71.81
70154;DHT22;57519;51.494;-2.626;2022-08-19T07:33:51;16.48;71.60
70154;DHT22;57519;51.494;-2.626;2022-08-19T07:36:23;16.52;71.99
70154;DHT22;57519;51.494;-2.626;2022-08-19T07:38:52;16.50;70.52
70154;DHT22;57519;51.494;-2.626;2022-08-19T07:41:24;16.56;69.74
70154;DHT22;57519;51.494;-2.626;2022-08-19T07:43:51;16.56;68.70
70154;DHT22;57519;51.494;-2.626;2022-08-19T07:46:17;16.57;68.98
70154;DHT22;57519;51.494;-2.626;2022-08-19T07:48:43;16.66;69.07
70154;DHT22;57519;51.494;-2.626;2022-08-19T07:51:17;16.71;68.88
70154;DHT22;57519;51.494;-2.626;2022-08-19T07:53:44;16.76;70.44
70154;DHT22;57519;51.494;-2.626;2022-08-19T07:56:12;16.80;68.08
70154;DHT22;57519;51.494;-2.626;2022-08-19T07:58:40;16.87;68.74
70154;DHT22;57519;51.494;-2.626;2022-08-19T08:01:07;16.91;65.75
70154;DHT22;57519;51.494;-2.626;2022-08-19T08:03:36;17.00;66.89
70154;DHT22;57519;51.494;-2.626;2022-08-19T08:06:28;17.00;62.30
70154;DHT22;57519;51.494;-2.626;2022-08-19T08:09:15;17.07;66.03
70154;DHT22;57519;51.494;-2.626;2022-08-19T08:11:55;17.14;66.74
70154;DHT22;57519;51.494;-2.626;2022-08-19T08:14:38;17.18;62.93
70154;DHT22;57519;51.494;-2.626;2022-08-19T08:17:10;17.29;66.49
70154;DHT22;57519;51.494;-2.626;2022-08-19T08:19:36;17.39;64.90
70154;DHT22;57519;51.494;-2.626;2022-08-19T08:22:20;17.35;63.78
70154;DHT22;57519;51.494;-2.626;2022-08-19T08:25:08;17.35;63.50
70154;DHT22;57519;51.494;-2.626;2022-08-19T08:27:39;17.52;63.96
70154;DHT22;57519;51.494;-2.626;2022-08-19T08:30:17;17.55;63.52
70154;DHT22;57519;51.494;-2.626;2022-08-19T08:32:45;17.61;63.16
70154;DHT22;57519;51.494;-2.626;2022-08-19T08:35:14;17.62;61.26
70154;DHT22;57519;51.494;-2.626;2022-08-19T08:37:42;17.66;61.35
70154;DHT22;57519;51.494;-2.626;2022-08-19T08:43:29;17.73;62.34
70154;DHT22;57519;51.494;-2.626;2022-08-19T08:46:37;17.83;60.03
70154;DHT22;57519;51.494;-2.626;2022-08-19T08:49:26;17.80;58.51
70154;DHT22;57519;51.494;-2.626;2022-08-19T08:52:04;17.87;59.35
70154;DHT22;57519;51.494;-2.626;2022-08-19T08:54:37;17.87;60.38
70154;DHT22;57519;51.494;-2.626;2022-08-19T08:57:18;18.00;61.02
70154;DHT22;57519;51.494;-2.626;2022-08-19T08:59:47;18.10;59.44
70154;DHT22;57519;51.494;-2.626;2022-08-19T09:02:18;18.01;58.00
70154;DHT22;57519;51.494;-2.626;2022-08-19T09:04:45;18.07;59.74
70154;DHT22;57519;51.494;-2.626;2022-08-19T09:10:43;18.23;58.39
70154;DHT22;57519;51.494;-2.626;2022-08-19T09:13:35;18.28;58.18
70154;DHT22;57519;51.494;-2.626;2022-08-19T09:16:22;18.45;56.79
70154;DHT22;57519;51.494;-2.626;2022-08-19T09:19:01;18.56;55.72
70154;DHT22;57519;51.494;-2.626;2022-08-19T09:21:39;18.65;56.80
70154;DHT22;57519;51.494;-2.626;2022-08-19T09:24:07;18.75;58.06
70154;DHT22;57519;51.494;-2.626;2022-08-19T09:26:38;18.76;55.97
70154;DHT22;57519;51.494;-2.626;2022-08-19T09:29:03;18.86;56.41
70154;DHT22;57519;51.494;-2.626;2022-08-19T09:31:31;18.85;56.03
70154;DHT22;57519;51.494;-2.626;2022-08-19T09:33:58;18.86;56.09
70154;DHT22;57519;51.494;-2.626;2022-08-19T09:36:27;19.13;55.66
70154;DHT22;57519;51.494;-2.626;2022-08-19T09:38:54;19.16;54.67
70154;DHT22;57519;51.494;-2.626;2022-08-19T09:41:23;19.30;54.27
70154;DHT22;57519;51.494;-2.626;2022-08-19T09:43:52;19.54;56.10
70154;DHT22;57519;51.494;-2.626;2022-08-19T09:46:19;19.65;55.57
70154;DHT22;57519;51.494;-2.626;2022-08-19T09:48:49;19.64;56.15
70154;DHT22;57519;51.494;-2.626;2022-08-19T09:51:22;19.75;54.61
70154;DHT22;57519;51.494;-2.626;2022-08-19T09:53:50;19.92;56.03
70154;DHT22;57519;51.494;-2.626;2022-08-19T09:56:18;19.87;55.38
70154;DHT22;57519;51.494;-2.626;2022-08-19T09:58:43;19.96;55.05
70154;DHT22;57519;51.494;-2.626;2022-08-19T10:01:17;20.05;56.05
70154;DHT22;57519;51.494;-2.626;2022-08-19T10:03:48;19.78;54.55
70154;DHT22;57519;51.494;-2.626;2022-08-19T10:06:17;19.58;56.10
70154;DHT22;57519;51.494;-2.626;2022-08-19T10:08:53;19.51;57.23
70154;DHT22;57519;51.494;-2.626;2022-08-19T10:11:19;19.59;57.16
70154;DHT22;57519;51.494;-2.626;2022-08-19T10:13:46;19.55;57.66
70154;DHT22;57519;51.494;-2.626;2022-08-19T10:16:16;20.00;57.43
70154;DHT22;57519;51.494;-2.626;2022-08-19T10:18:59;20.02;56.72
70154;DHT22;57519;51.494;-2.626;2022-08-19T10:21:28;20.19;57.58
70154;DHT22;57519;51.494;-2.626;2022-08-19T10:23:57;20.22;57.44
70154;DHT22;57519;51.494;-2.626;2022-08-19T10:26:26;19.85;58.10
70154;DHT22;57519;51.494;-2.626;2022-08-19T10:29:04;19.53;58.88
70154;DHT22;57519;51.494;-2.626;2022-08-19T10:31:33;19.86;58.91
70154;DHT22;57519;51.494;-2.626;2022-08-19T10:34:01;19.87;57.56
70154;DHT22;57519;51.494;-2.626;2022-08-19T10:36:33;20.09;58.64
70154;DHT22;57519;51.494;-2.626;2022-08-19T10:39:03;20.20;57.23
70154;DHT22;57519;51.494;-2.626;2022-08-19T10:41:32;20.30;57.52
70154;DHT22;57519;51.494;-2.626;2022-08-19T10:44:05;20.37;58.05
70154;DHT22;57519;51.494;-2.626;2022-08-19T10:46:33;19.90;56.91
70154;DHT22;57519;51.494;-2.626;2022-08-19T10:49:12;19.99;57.90
70154;DHT22;57519;51.494;-2.626;2022-08-19T10:51:39;19.61;56.86
70154;DHT22;57519;51.494;-2.626;2022-08-19T10:54:24;19.78;58.21
70154;DHT22;57519;51.494;-2.626;2022-08-19T10:57:09;19.97;56.80
70154;DHT22;57519;51.494;-2.626;2022-08-19T10:59:35;20.12;55.93
70154;DHT22;57519;51.494;-2.626;2022-08-19T11:02:04;19.97;56.65
70154;DHT22;57519;51.494;-2.626;2022-08-19T11:04:30;19.97;58.35
70154;DHT22;57519;51.494;-2.626;2022-08-19T11:06:57;19.90;56.95
70154;DHT22;57519;51.494;-2.626;2022-08-19T11:09:25;19.83;58.99
70154;DHT22;57519;51.494;-2.626;2022-08-19T11:11:58;19.82;57.88
70154;DHT22;57519;51.494;-2.626;2022-08-19T11:14:24;20.00;58.86
70154;DHT22;57519;51.494;-2.626;2022-08-19T11:16:56;19.97;57.53
70154;DHT22;57519;51.494;-2.626;2022-08-19T11:19:22;20.39;57.40
70154;DHT22;57519;51.494;-2.626;2022-08-19T11:21:52;20.48;56.70
70154;DHT22;57519;51.494;-2.626;2022-08-19T11:24:22;21.13;56.90
70154;DHT22;57519;51.494;-2.626;2022-08-19T11:26:52;21.67;55.26
70154;DHT22;57519;51.494;-2.626;2022-08-19T11:29:20;21.81;54.31
70154;DHT22;57519;51.494;-2.626;2022-08-19T11:31:51;21.78;52.89
70154;DHT22;57519;51.494;-2.626;2022-08-19T11:34:24;21.66;52.20
70154;DHT22;57519;51.494;-2.626;2022-08-19T11:36:52;21.39;52.44
70154;DHT22;57519;51.494;-2.626;2022-08-19T11:39:20;21.30;53.54
70154;DHT22;57519;51.494;-2.626;2022-08-19T11:41:47;21.10;53.29
70154;DHT22;57519;51.494;-2.626;2022-08-19T11:44:13;21.40;53.86
70154;DHT22;57519;51.494;-2.626;2022-08-19T11:46:41;21.87;54.54
70154;DHT22;57519;51.494;-2.626;2022-08-19T11:49:06;21.71;54.25
70154;DHT22;57519;51.494;-2.626;2022-08-19T11:51:33;21.66;56.27
70154;DHT22;57519;51.494;-2.626;2022-08-19T11:54:00;21.64;54.29
70154;DHT22;57519;51.494;-2.626;2022-08-19T11:56:46;21.45;54.71
70154;DHT22;57519;51.494;-2.626;2022-08-19T11:59:13;21.18;55.12
70154;DHT22;57519;51.494;-2.626;2022-08-19T12:01:38;21.39;56.45
70154;DHT22;57519;51.494;-2.626;2022-08-19T12:04:06;21.56;56.00
70154;DHT22;57519;51.494;-2.626;2022-08-19T12:06:32;21.45;55.77
70154;DHT22;57519;51.494;-2.626;2022-08-19T12:09:09;21.60;54.39
70154;DHT22;57519;51.494;-2.626;2022-08-19T12:11:36;21.75;53.66
70154;DHT22;57519;51.494;-2.626;2022-08-19T12:14:20;21.94;53.45
70154;DHT22;57519;51.494;-2.626;2022-08-19T12:16:46;22.23;54.55
70154;DHT22;57519;51.494;-2.626;2022-08-19T12:19:12;22.36;53.04
70154;DHT22;57519;51.494;-2.626;2022-08-19T12:21:37;22.18;52.76
70154;DHT22;57519;51.494;-2.626;2022-08-19T12:24:04;21.94;53.44
70154;DHT22;57519;51.494;-2.626;2022-08-19T12:26:31;21.97;53.95
70154;DHT22;57519;51.494;-2.626;2022-08-19T12:28:59;22.05;51.82
70154;DHT22;57519;51.494;-2.626;2022-08-19T12:31:27;21.88;51.34
70154;DHT22;57519;51.494;-2.626;2022-08-19T12:33:53;21.84;52.72
70154;DHT22;57519;51.494;-2.626;2022-08-19T12:36:19;22.11;51.70
70154;DHT22;57519;51.494;-2.626;2022-08-19T12:38:45;22.80;50.59
70154;DHT22;57519;51.494;-2.626;2022-08-19T12:41:18;22.57;49.39
70154;DHT22;57519;51.494;-2.626;2022-08-19T12:43:47;22.21;50.30
70154;DHT22;57519;51.494;-2.626;2022-08-19T12:46:14;22.09;50.75
70154;DHT22;57519;51.494;-2.626;2022-08-19T12:48:42;21.83;51.09
70154;DHT22;57519;51.494;-2.626;2022-08-19T12:51:12;21.51;51.28
70154;DHT22;57519;51.494;-2.626;2022-08-19T12:53:39;21.49;50.65
70154;DHT22;57519;51.494;-2.626;2022-08-19T12:56:19;21.15;51.94
70154;DHT22;57519;51.494;-2.626;2022-08-19T12:58:45;21.26;52.49
70154;DHT22;57519;51.494;-2.626;2022-08-19T13:01:12;21.12;52.05
70154;DHT22;57519;51.494;-2.626;2022-08-19T13:03:45;21.61;52.45
70154;DHT22;57519;51.494;-2.626;2022-08-19T13:06:13;21.97;51.29
70154;DHT22;57519;51.494;-2.626;2022-08-19T13:08:41;22.26;50.47
70154;DHT22;57519;51.494;-2.626;2022-08-19T13:11:12;22.04;50.47
70154;DHT22;57519;51.494;-2.626;2022-08-19T13:13:41;21.95;49.09
70154;DHT22;57519;51.494;-2.626;2022-08-19T13:16:09;22.38;49.35
70154;DHT22;57519;51.494;-2.626;2022-08-19T13:18:39;22.16;50.07
70154;DHT22;57519;51.494;-2.626;2022-08-19T13:21:06;22.41;49.87
70154;DHT22;57519;51.494;-2.626;2022-08-19T13:23:33;21.90;49.08
70154;DHT22;57519;51.494;-2.626;2022-08-19T13:26:01;22.16;49.98
70154;DHT22;57519;51.494;-2.626;2022-08-19T13:28:27;21.87;49.24
70154;DHT22;57519;51.494;-2.626;2022-08-19T13:31:17;21.95;50.29
70154;DHT22;57519;51.494;-2.626;2022-08-19T13:34:01;22.16;49.67
70154;DHT22;57519;51.494;-2.626;2022-08-19T13:36:30;22.04;50.16
70154;DHT22;57519;51.494;-2.626;2022-08-19T13:38:57;21.80;50.97
70154;DHT22;57519;51.494;-2.626;2022-08-19T13:41:27;21.85;49.70
70154;DHT22;57519;51.494;-2.626;2022-08-19T13:43:53;21.93;49.93
70154;DHT22;57519;51.494;-2.626;2022-08-19T13:46:20;21.90;50.46
70154;DHT22;57519;51.494;-2.626;2022-08-19T13:48:46;21.20;52.35
70154;DHT22;57519;51.494;-2.626;2022-08-19T13:51:14;21.26;51.67
70154;DHT22;57519;51.494;-2.626;2022-08-19T13:53:42;21.81;50.74
70154;DHT22;57519;51.494;-2.626;2022-08-19T13:56:09;21.91;49.88
70154;DHT22;57519;51.494;-2.626;2022-08-19T13:58:37;22.15;49.14
70154;DHT22;57519;51.494;-2.626;2022-08-19T14:01:06;21.97;48.33
70154;DHT22;57519;51.494;-2.626;2022-08-19T14:03:34;22.16;48.87
70154;DHT22;57519;51.494;-2.626;2022-08-19T14:06:00;22.19;49.90
70154;DHT22;57519;51.494;-2.626;2022-08-19T14:08:26;22.11;48.08
70154;DHT22;57519;51.494;-2.626;2022-08-19T14:10:56;21.97;49.34
70154;DHT22;57519;51.494;-2.626;2022-08-19T14:13:30;21.49;49.23
70154;DHT22;57519;51.494;-2.626;2022-08-19T14:16:00;21.40;49.07
70154;DHT22;57519;51.494;-2.626;2022-08-19T14:18:25;21.06;50.32
70154;DHT22;57519;51.494;-2.626;2022-08-19T14:20:53;20.81;51.77
70154;DHT22;57519;51.494;-2.626;2022-08-19T14:23:19;20.89;51.76
70154;DHT22;57519;51.494;-2.626;2022-08-19T14:25:49;20.81;52.39
70154;DHT22;57519;51.494;-2.626;2022-08-19T14:28:38;21.22;51.76
70154;DHT22;57519;51.494;-2.626;2022-08-19T14:31:07;21.53;50.89
70154;DHT22;57519;51.494;-2.626;2022-08-19T14:33:35;21.58;50.73
70154;DHT22;57519;51.494;-2.626;2022-08-19T14:36:06;21.36;49.31
70154;DHT22;57519;51.494;-2.626;2022-08-19T14:38:34;21.51;48.20
70154;DHT22;57519;51.494;-2.626;2022-08-19T14:41:26;21.66;48.73
70154;DHT22;57519;51.494;-2.626;2022-08-19T14:43:54;21.50;48.59
70154;DHT22;57519;51.494;-2.626;2022-08-19T14:46:24;21.42;49.39
70154;DHT22;57519;51.494;-2.626;2022-08-19T14:48:55;21.50;48.36
70154;DHT22;57519;51.494;-2.626;2022-08-19T14:51:24;21.13;49.54
70154;DHT22;57519;51.494;-2.626;2022-08-19T14:53:53;20.92;50.24
70154;DHT22;57519;51.494;-2.626;2022-08-19T14:56:23;21.15;49.49
70154;DHT22;57519;51.494;-2.626;2022-08-19T14:58:49;21.51;49.65
70154;DHT22;57519;51.494;-2.626;2022-08-19T15:01:21;21.39;50.06
70154;DHT22;57519;51.494;-2.626;2022-08-19T15:03:47;21.56;49.38
70154;DHT22;57519;51.494;-2.626;2022-08-19T15:06:13;21.53;49.39
70154;DHT22;57519;51.494;-2.626;2022-08-19T15:08:40;21.22;50.89
70154;DHT22;57519;51.494;-2.626;2022-08-19T15:11:15;21.39;50.89
70154;DHT22;57519;51.494;-2.626;2022-08-19T15:13:43;21.09;51.34
70154;DHT22;57519;51.494;-2.626;2022-08-19T15:16:17;20.92;52.03
70154;DHT22;57519;51.494;-2.626;2022-08-19T15:18:43;21.08;52.68
70154;DHT22;57519;51.494;-2.626;2022-08-19T15:21:10;21.20;52.82
70154;DHT22;57519;51.494;-2.626;2022-08-19T15:23:47;21.19;53.02
70154;DHT22;57519;51.494;-2.626;2022-08-19T15:26:19;21.77;52.27
70154;DHT22;57519;51.494;-2.626;2022-08-19T15:28:45;22.04;51.59
70154;DHT22;57519;51.494;-2.626;2022-08-19T15:31:12;22.43;50.74
70154;DHT22;57519;51.494;-2.626;2022-08-19T15:33:39;22.08;51.01
70154;DHT22;57519;51.494;-2.626;2022-08-19T15:36:10;22.42;50.77
70154;DHT22;57519;51.494;-2.626;2022-08-19T15:38:41;22.55;50.97